createdAt,value
2023-04-29T00:00:28.900Z,52.31
2023-04-29T00:05:33.047Z,50.61
2023-04-29T00:10:37.186Z,49.94
2023-04-29T00:15:42.537Z,49.83
2023-04-29T00:20:46.484Z,49.06
2023-04-29T00:25:51.321Z,48.36
2023-04-29T00:30:56.473Z,47.70
2023-04-29T00:36:00.909Z,47.75
2023-04-29T00:41:05.451Z,47.25
2023-04-29T00:46:11.241Z,46.77
2023-04-29T00:51:15.520Z,45.58
2023-04-29T00:56:21.798Z,44.55
2023-04-29T01:01:25.980Z,44.20
2023-04-29T01:06:59.280Z,43.55
2023-04-29T01:12:23.379Z,43.75
2023-04-29T01:17:32.312Z,43.37
2023-04-29T01:22:36.432Z,43.02
2023-04-29T01:27:48.957Z,42.12
2023-04-29T01:33:23.120Z,42.16
2023-04-29T01:38:40.708Z,41.40
2023-04-29T01:43:49.281Z,41.76
2023-04-29T01:48:58.207Z,42.06
2023-04-29T01:54:02.798Z,41.33
2023-04-29T01:59:06.819Z,41.39
2023-04-29T02:04:20.126Z,41.11
2023-04-29T02:09:24.340Z,40.48
2023-04-29T02:15:11.343Z,39.98
2023-04-29T02:20:15.398Z,40.49
2023-04-29T02:25:19.770Z,39.74
2023-04-29T02:30:24.795Z,39.59
2023-04-29T02:35:28.907Z,39.08
2023-04-29T02:40:33.622Z,39.13
2023-04-29T02:45:38.475Z,38.51
2023-04-29T02:50:42.772Z,38.10
2023-04-29T02:55:46.651Z,36.98
2023-04-29T03:00:51.638Z,36.96
2023-04-29T03:05:55.503Z,36.34
2023-04-29T03:10:59.818Z,36.60
2023-04-29T03:16:07.579Z,35.98
2023-04-29T03:21:12.277Z,35.57
2023-04-29T03:26:16.311Z,34.97
2023-04-29T03:31:22.034Z,35.00
2023-04-29T03:36:26.369Z,34.31
2023-04-29T03:41:40.400Z,34.34
2023-04-29T03:46:46.543Z,33.40
2023-04-29T03:51:50.772Z,34.33
2023-04-29T03:56:56.432Z,33.78
2023-04-29T04:02:01.257Z,32.66
2023-04-29T04:07:06.827Z,32.69
2023-04-29T04:12:28.909Z,30.89
2023-04-29T04:17:33.448Z,31.58
2023-04-29T04:22:38.822Z,31.09
2023-04-29T04:27:52.439Z,30.96
2023-04-29T04:33:08.372Z,30.26
2023-04-29T04:38:14.000Z,29.79
2023-04-29T04:43:18.620Z,30.61
2023-04-29T04:48:23.102Z,30.56
2023-04-29T04:53:28.222Z,30.20
2023-04-29T04:58:36.871Z,30.80
2023-04-29T05:03:41.914Z,30.67
2023-04-29T05:08:46.526Z,30.95
2023-04-29T05:13:51.849Z,30.55
2023-04-29T05:18:56.681Z,30.27
2023-04-29T05:24:09.420Z,30.77
2023-04-29T05:29:14.296Z,30.86
2023-04-29T05:34:26.266Z,30.62
2023-04-29T05:39:30.308Z,30.58
2023-04-29T05:44:44.720Z,30.88
2023-04-29T05:49:50.047Z,31.96
2023-04-29T05:54:54.099Z,30.83
2023-04-29T06:00:00.304Z,31.31
2023-04-29T06:05:09.701Z,30.64
2023-04-29T06:10:20.201Z,30.23
2023-04-29T06:15:24.471Z,30.44
2023-04-29T06:20:29.121Z,30.04
2023-04-29T06:25:33.334Z,30.06
2023-04-29T06:30:41.018Z,29.85
2023-04-29T06:35:45.585Z,29.63
2023-04-29T06:41:07.857Z,29.73
2023-04-29T06:46:31.105Z,29.20
2023-04-29T06:51:46.201Z,28.82
2023-04-29T06:56:50.049Z,28.32
2023-04-29T07:01:54.942Z,27.41
2023-04-29T07:07:00.365Z,28.55
2023-04-29T07:12:05.920Z,28.84
2023-04-29T07:17:10.930Z,28.96
2023-04-29T07:22:16.911Z,28.47
2023-04-29T07:27:21.006Z,27.75
2023-04-29T07:32:25.190Z,27.68
2023-04-29T07:37:29.262Z,28.47
2023-04-29T07:42:33.448Z,28.43
2023-04-29T07:47:38.492Z,28.87
2023-04-29T07:52:42.723Z,29.14
2023-04-29T07:57:46.802Z,29.25
2023-04-29T08:02:57.686Z,28.70
2023-04-29T08:08:03.173Z,28.65
2023-04-29T08:13:07.082Z,27.69
2023-04-29T08:18:11.225Z,27.43
2023-04-29T08:23:15.267Z,26.82
2023-04-29T08:28:19.837Z,26.77
2023-04-29T08:33:23.965Z,28.44
2023-04-29T08:38:28.652Z,29.03
2023-04-29T08:43:36.193Z,29.23
2023-04-29T08:48:44.773Z,29.93
2023-04-29T08:53:49.226Z,30.00
2023-04-29T08:58:59.628Z,30.20
2023-04-29T09:04:14.119Z,31.25
2023-04-29T09:09:20.836Z,30.81
2023-04-29T09:14:26.411Z,30.62
2023-04-29T09:19:35.772Z,30.54
2023-04-29T09:24:40.581Z,29.97
2023-04-29T09:30:01.649Z,29.85
2023-04-29T09:35:24.558Z,30.42
2023-04-29T09:40:46.623Z,30.39
2023-04-29T09:45:54.876Z,29.90
2023-04-29T09:51:06.827Z,30.25
2023-04-29T09:56:10.756Z,31.17
2023-04-29T10:01:18.839Z,31.54
2023-04-29T10:06:24.996Z,31.58
2023-04-29T10:11:29.453Z,31.91
2023-04-29T10:16:42.870Z,31.71
2023-04-29T10:21:50.642Z,32.09
2023-04-29T10:26:57.579Z,32.48
2023-04-29T10:32:02.897Z,32.54
2023-04-29T10:37:12.146Z,32.69
2023-04-29T10:42:47.141Z,32.65
2023-04-29T10:48:13.311Z,32.56
2023-04-29T10:53:23.216Z,32.69
2023-04-29T10:58:37.192Z,32.57
2023-04-29T11:03:59.635Z,33.18
2023-04-29T11:09:08.488Z,32.97
2023-04-29T11:14:14.822Z,33.09
2023-04-29T11:19:19.225Z,32.52
2023-04-29T11:24:23.421Z,31.62
2023-04-29T11:29:28.802Z,33.30
2023-04-29T11:34:34.195Z,33.36
2023-04-29T11:39:38.214Z,33.32
2023-04-29T11:44:42.309Z,33.61
2023-04-29T11:49:46.302Z,32.82
2023-04-29T11:54:50.552Z,32.70
2023-04-29T11:59:54.820Z,32.97
2023-04-29T12:05:02.309Z,33.34
2023-04-29T12:10:12.004Z,33.40
2023-04-29T12:15:16.886Z,33.37
2023-04-29T12:20:21.282Z,33.74
2023-04-29T12:25:29.063Z,33.95
2023-04-29T12:30:36.713Z,33.69
2023-04-29T12:35:40.851Z,34.21
2023-04-29T12:40:46.460Z,33.76
2023-04-29T12:45:50.469Z,33.66
2023-04-29T12:50:54.693Z,34.20
2023-04-29T12:55:59.697Z,34.04
2023-04-29T13:01:04.366Z,33.75
2023-04-29T13:06:09.528Z,33.64
2023-04-29T13:11:14.190Z,34.54
2023-04-29T13:16:18.792Z,33.95
2023-04-29T13:21:23.023Z,34.95
2023-04-29T13:26:28.075Z,35.14
2023-04-29T13:31:32.284Z,35.71
2023-04-29T13:36:36.882Z,35.89
2023-04-29T13:41:42.242Z,36.12
2023-04-29T13:46:50.522Z,35.52
2023-04-29T13:52:45.800Z,35.63
2023-04-29T13:57:50.053Z,36.46
2023-04-29T14:02:45.325Z,37.27
2023-04-29T14:07:49.750Z,37.04
2023-04-29T14:12:53.695Z,37.39
2023-04-29T14:17:57.676Z,37.99
2023-04-29T14:23:01.754Z,39.20
2023-04-29T14:28:06.137Z,39.82
2023-04-29T14:33:10.685Z,39.61
2023-04-29T14:38:15.137Z,39.62
2023-04-29T14:43:19.549Z,39.78
2023-04-29T14:48:23.631Z,40.45
2023-04-29T14:53:27.540Z,39.81
2023-04-29T14:58:31.806Z,40.01
2023-04-29T15:08:57.694Z,41.26
2023-04-29T15:14:01.692Z,41.93
2023-04-29T15:19:05.719Z,42.78
2023-04-29T15:24:10.084Z,43.33
2023-04-29T15:29:14.042Z,43.96
2023-04-29T15:34:17.998Z,43.99
2023-04-29T15:39:22.044Z,43.90
2023-04-29T15:44:26.157Z,44.80
2023-04-29T15:49:31.425Z,45.25
2023-04-29T15:54:35.515Z,45.64
2023-04-29T15:59:39.439Z,46.73
2023-04-29T16:04:43.535Z,46.47
2023-04-29T16:09:47.761Z,47.51
2023-04-29T16:14:52.306Z,48.48
2023-04-29T16:19:56.618Z,48.38
2023-04-29T16:25:00.706Z,48.75
2023-04-29T16:30:06.728Z,48.64
2023-04-29T16:35:11.870Z,48.52
2023-04-29T16:40:15.909Z,49.03
2023-04-29T16:45:21.624Z,49.11
2023-04-29T16:50:27.898Z,50.03
2023-04-29T16:55:32.290Z,50.58
2023-04-29T17:00:36.684Z,50.61
2023-04-29T17:05:41.270Z,51.03
2023-04-29T17:10:45.813Z,51.77
2023-04-29T17:15:49.820Z,52.33
2023-04-29T17:20:54.079Z,52.22
2023-04-29T17:25:58.279Z,52.64
2023-04-29T17:31:03.498Z,52.72
2023-04-29T17:36:07.861Z,52.92
2023-04-29T17:41:12.032Z,53.32
2023-04-29T17:46:16.081Z,53.17
2023-04-29T17:51:19.951Z,53.23
2023-04-29T17:56:24.054Z,53.95
2023-04-29T18:01:28.217Z,53.76
2023-04-29T18:06:32.530Z,54.09
2023-04-29T18:11:36.642Z,54.05
2023-04-29T18:16:41.320Z,54.20
2023-04-29T18:21:45.462Z,55.07
2023-04-29T18:26:49.557Z,54.49
2023-04-29T18:31:55.684Z,55.25
2023-04-29T18:36:59.737Z,55.18
2023-04-29T18:42:05.265Z,55.64
2023-04-29T18:47:09.133Z,56.24
2023-04-29T18:52:13.429Z,56.37
2023-04-29T18:57:17.568Z,56.88
2023-04-29T19:02:21.642Z,56.45
2023-04-29T19:07:25.676Z,56.60
2023-04-29T19:12:29.555Z,55.94
2023-04-29T19:17:33.651Z,55.87
2023-04-29T19:22:38.212Z,56.63
2023-04-29T19:27:45.921Z,56.46
2023-04-29T19:32:49.815Z,56.69
2023-04-29T19:37:55.497Z,56.91
2023-04-29T19:42:59.450Z,57.19
2023-04-29T19:48:04.764Z,57.43
2023-04-29T19:53:08.695Z,57.48
2023-04-29T19:58:12.937Z,57.85
2023-04-29T20:03:17.206Z,57.61
2023-04-29T20:08:21.308Z,57.28
2023-04-29T20:13:25.378Z,57.77
2023-04-29T20:18:29.379Z,57.85
2023-04-29T20:23:33.418Z,57.99
2023-04-29T20:28:39.631Z,58.50
2023-04-29T20:34:44.106Z,58.87
2023-04-29T20:39:48.665Z,58.95
2023-04-29T20:44:52.713Z,59.39
2023-04-29T20:49:56.810Z,59.43
2023-04-29T20:55:02.003Z,59.91
2023-04-29T21:00:09.562Z,59.50
2023-04-29T21:05:15.235Z,60.08
2023-04-29T21:10:19.382Z,59.63
2023-04-29T21:15:25.197Z,60.21
2023-04-29T21:20:29.191Z,60.57
2023-04-29T21:25:33.431Z,60.56
2023-04-29T21:30:37.622Z,60.86
2023-04-29T21:35:44.023Z,60.82
2023-04-29T21:40:49.159Z,60.96
2023-04-29T21:45:55.609Z,61.31
2023-04-29T21:51:00.555Z,60.91
2023-04-29T21:56:06.296Z,61.12
2023-04-29T22:01:36.862Z,61.05
2023-04-29T22:06:40.951Z,61.37
2023-04-29T22:11:44.998Z,61.50
2023-04-29T22:16:49.072Z,61.50
2023-04-29T22:21:53.145Z,61.47
2023-04-29T22:26:57.377Z,61.16
2023-04-29T22:32:01.592Z,61.36
2023-04-29T22:37:05.854Z,61.30
2023-04-29T22:42:09.742Z,61.20
2023-04-29T22:47:13.873Z,61.49
2023-04-29T22:52:17.796Z,61.86
2023-04-29T22:57:21.919Z,61.70
2023-04-29T23:02:30.255Z,61.42
2023-04-29T23:07:34.667Z,61.21
2023-04-29T23:12:38.613Z,61.37
2023-04-29T23:17:42.625Z,60.90
2023-04-29T23:22:46.710Z,60.51
2023-04-29T23:27:50.640Z,60.62
2023-04-29T23:32:54.936Z,60.50
2023-04-29T23:37:58.977Z,60.44
2023-04-29T23:43:03.052Z,60.27
2023-04-29T23:48:07.296Z,60.22
2023-04-29T23:53:11.252Z,59.80
2023-04-29T23:58:15.297Z,59.45
